createdAt,value
2023-03-23T16:00:23.739Z,15.47
2023-03-23T16:03:51.616Z,15.37
2023-03-23T16:07:17.764Z,15.26
2023-03-23T16:10:46.620Z,15.12
2023-03-23T16:14:12.733Z,14.99
2023-03-23T16:17:38.855Z,14.85
2023-03-23T16:21:07.331Z,14.71
2023-03-23T16:24:33.869Z,14.58
2023-03-23T16:27:59.890Z,14.47
2023-03-23T16:31:26.043Z,14.36
2023-03-23T16:35:15.688Z,14.27
2023-03-23T16:38:49.219Z,14.20
2023-03-23T16:42:17.087Z,14.25
2023-03-23T16:45:45.480Z,14.28
2023-03-23T16:49:11.365Z,14.28
2023-03-23T16:52:46.369Z,14.25
2023-03-23T16:56:13.419Z,14.20
2023-03-23T16:59:39.976Z,14.13
2023-03-23T17:03:06.179Z,14.04
2023-03-23T17:06:32.468Z,13.89
2023-03-23T17:09:58.363Z,13.70
2023-03-23T17:13:27.963Z,13.51
2023-03-23T17:16:58.949Z,13.32
2023-03-23T17:20:28.016Z,13.12
2023-03-23T17:23:54.542Z,12.93
2023-03-23T17:27:30.924Z,12.77
2023-03-23T17:30:56.920Z,12.65
2023-03-23T17:34:25.482Z,12.58
2023-03-23T17:37:53.717Z,12.54
2023-03-23T17:41:21.862Z,12.57
2023-03-23T17:44:49.592Z,12.60
2023-03-23T17:48:18.286Z,12.62
2023-03-23T17:51:45.663Z,12.62
2023-03-23T17:55:00.844Z,12.61
2023-03-23T17:58:06.906Z,12.60
2023-03-23T18:01:13.242Z,12.58
2023-03-23T18:04:22.656Z,12.57
2023-03-23T18:07:50.272Z,12.54
2023-03-23T18:11:09.329Z,12.51
2023-03-23T18:14:35.786Z,12.49
2023-03-23T18:18:22.178Z,12.46
2023-03-23T18:21:47.918Z,12.45
2023-03-23T18:25:14.170Z,12.45
2023-03-23T18:28:41.514Z,12.45
2023-03-23T18:32:08.549Z,12.43
2023-03-23T18:35:34.566Z,12.42
2023-03-23T18:39:00.528Z,12.42
2023-03-23T18:42:29.616Z,12.41
2023-03-23T18:45:57.534Z,12.43
2023-03-23T18:49:23.413Z,12.44
2023-03-23T18:53:52.803Z,12.40
2023-03-23T18:56:36.752Z,12.31
2023-03-23T19:00:04.745Z,12.16
2023-03-23T19:04:18.142Z,12.03
2023-03-23T19:07:20.020Z,11.86
2023-03-23T19:10:46.192Z,11.73
2023-03-23T19:14:13.721Z,11.62
2023-03-23T19:17:39.610Z,11.50
2023-03-23T19:21:14.974Z,11.40
2023-03-23T19:24:43.094Z,11.29
2023-03-23T19:31:39.862Z,11.11
2023-03-23T19:35:07.052Z,11.01
2023-03-23T19:38:33.026Z,10.94
2023-03-23T19:41:59.190Z,10.86
2023-03-23T19:45:26.373Z,10.82
2023-03-23T19:48:52.989Z,10.78
2023-03-23T19:52:19.228Z,10.75
2023-03-23T19:55:45.346Z,10.72
2023-03-23T19:59:14.957Z,10.68
2023-03-23T20:02:45.632Z,10.64
2023-03-23T20:06:12.432Z,10.63
2023-03-23T20:09:38.925Z,10.58
2023-03-23T20:13:06.043Z,10.54
2023-03-23T20:16:32.858Z,10.53
2023-03-23T20:19:58.935Z,10.49
2023-03-23T20:23:08.074Z,10.45
2023-03-23T20:26:14.699Z,10.40
2023-03-23T20:29:40.787Z,10.34
2023-03-23T20:33:07.751Z,10.28
2023-03-23T20:36:35.875Z,10.19
2023-03-23T20:40:01.752Z,10.10
2023-03-23T20:43:30.605Z,10.07
2023-03-23T20:46:56.358Z,10.06
2023-03-23T20:50:22.355Z,10.03
2023-03-23T20:53:48.633Z,10.03
2023-03-23T20:57:14.761Z,10.04
2023-03-23T21:00:42.190Z,10.07
2023-03-23T21:04:15.734Z,10.08
2023-03-23T21:07:42.780Z,10.06
2023-03-23T21:11:09.600Z,10.06
2023-03-23T21:14:35.447Z,10.01
2023-03-23T21:18:01.313Z,9.96
2023-03-23T21:21:28.304Z,9.90
2023-03-23T21:24:54.656Z,9.86
2023-03-23T21:28:20.644Z,9.82
2023-03-23T21:31:52.216Z,9.79
2023-03-23T21:35:27.072Z,9.76
2023-03-23T21:38:52.912Z,9.73
2023-03-23T21:42:18.883Z,9.72
2023-03-23T21:45:45.313Z,9.71
2023-03-23T21:49:14.507Z,9.70
2023-03-23T21:52:42.060Z,9.65
2023-03-23T21:56:09.976Z,9.61
2023-03-23T21:59:35.892Z,9.60
2023-03-23T22:03:02.679Z,9.56
2023-03-23T22:06:28.680Z,9.53
2023-03-23T22:09:55.122Z,9.51
2023-03-23T22:13:20.905Z,9.51
2023-03-23T22:16:46.872Z,9.50
2023-03-23T22:20:14.607Z,9.52
2023-03-23T22:23:41.804Z,9.53
2023-03-23T22:27:07.812Z,9.51
2023-03-23T22:30:34.011Z,9.48
2023-03-23T22:34:00.138Z,9.44
2023-03-23T22:37:26.147Z,9.41
2023-03-23T22:40:57.538Z,9.40
2023-03-23T22:44:23.242Z,9.38
2023-03-23T22:47:49.089Z,9.37
2023-03-23T22:51:15.976Z,9.35
2023-03-23T22:54:41.834Z,9.31
2023-03-23T22:58:07.724Z,9.26
2023-03-23T23:01:33.658Z,9.21
2023-03-23T23:04:59.570Z,9.16
2023-03-23T23:08:26.527Z,9.09
2023-03-23T23:11:52.398Z,9.03
2023-03-23T23:15:18.100Z,8.89
2023-03-23T23:18:43.915Z,8.72
2023-03-23T23:22:18.424Z,8.55
2023-03-23T23:25:46.394Z,8.42
2023-03-23T23:29:13.434Z,8.34
2023-03-23T23:32:39.528Z,8.29
2023-03-23T23:36:05.472Z,8.26
2023-03-23T23:39:31.558Z,8.19
2023-03-23T23:42:52.526Z,8.07
2023-03-23T23:46:18.219Z,7.98
2023-03-23T23:49:43.925Z,7.90
2023-03-23T23:53:10.988Z,7.81
2023-03-23T23:56:36.853Z,7.72
